sensor_id;sensor_type;location;lat;lon;timestamp;pressure;altitude;pressure_sealevel;temperature;humidity
51986;BME280;38002;53.296;6.600;2023-04-04T00:01:32;103455.56;;;1.61;74.09
51986;BME280;38002;53.296;6.600;2023-04-04T00:06:33;103459.31;;;1.55;75.04
51986;BME280;38002;53.296;6.600;2023-04-04T00:11:33;103448.72;;;1.51;74.63
51986;BME280;38002;53.296;6.600;2023-04-04T00:16:34;103444.47;;;1.42;75.20
51986;BME280;38002;53.296;6.600;2023-04-04T00:21:35;103443.75;;;1.35;74.73
51986;BME280;38002;53.296;6.600;2023-04-04T00:26:35;103444.72;;;1.33;74.96
51986;BME280;38002;53.296;6.600;2023-04-04T00:31:36;103439.41;;;1.30;75.32
51986;BME280;38002;53.296;6.600;2023-04-04T00:36:36;103431.38;;;1.30;75.65
51986;BME280;38002;53.296;6.600;2023-04-04T00:41:37;103431.38;;;1.30;75.31
51986;BME280;38002;53.296;6.600;2023-04-04T00:46:38;103424.19;;;1.32;76.13
51986;BME280;38002;53.296;6.600;2023-04-04T00:51:39;103433.13;;;1.31;76.26
51986;BME280;38002;53.296;6.600;2023-04-04T00:56:40;103422.53;;;1.26;76.26
51986;BME280;38002;53.296;6.600;2023-04-04T01:01:40;103426.19;;;1.24;76.98
51986;BME280;38002;53.296;6.600;2023-04-04T01:06:41;103424.50;;;1.20;76.56
51986;BME280;38002;53.296;6.600;2023-04-04T01:11:43;103428.19;;;1.16;76.90
51986;BME280;38002;53.296;6.600;2023-04-04T01:16:44;103435.34;;;1.15;76.53
51986;BME280;38002;53.296;6.600;2023-04-04T01:21:45;103428.31;;;1.10;76.69
51986;BME280;38002;53.296;6.600;2023-04-04T01:26:46;103434.66;;;1.07;77.02
51986;BME280;38002;53.296;6.600;2023-04-04T01:31:51;103432.09;;;1.03;76.36
51986;BME280;38002;53.296;6.600;2023-04-04T01:37:03;103426.88;;;0.97;76.22
51986;BME280;38002;53.296;6.600;2023-04-04T01:42:06;103422.44;;;0.96;76.85
51986;BME280;38002;53.296;6.600;2023-04-04T01:47:07;103416.19;;;0.95;77.05
51986;BME280;38002;53.296;6.600;2023-04-04T01:52:10;103410.91;;;0.92;76.50
51986;BME280;38002;53.296;6.600;2023-04-04T01:57:11;103406.44;;;0.93;76.79
51986;BME280;38002;53.296;6.600;2023-04-04T02:02:12;103408.22;;;0.92;76.93
51986;BME280;38002;53.296;6.600;2023-04-04T02:07:12;103406.53;;;0.89;76.81
51986;BME280;38002;53.296;6.600;2023-04-04T02:12:13;103412.06;;;0.82;76.54
51986;BME280;38002;53.296;6.600;2023-04-04T02:17:14;103411.31;;;0.75;76.83
51986;BME280;38002;53.296;6.600;2023-04-04T02:22:14;103412.34;;;0.70;76.12
51986;BME280;38002;53.296;6.600;2023-04-04T02:27:15;103406.28;;;0.63;76.49
51986;BME280;38002;53.296;6.600;2023-04-04T02:32:15;103403.69;;;0.60;76.91
51986;BME280;38002;53.296;6.600;2023-04-04T02:37:16;103397.59;;;0.52;76.96
51986;BME280;38002;53.296;6.600;2023-04-04T02:42:17;103408.38;;;0.49;76.99
51986;BME280;38002;53.296;6.600;2023-04-04T02:47:17;103405.78;;;0.46;76.69
51986;BME280;38002;53.296;6.600;2023-04-04T02:52:19;103400.50;;;0.43;77.73
51986;BME280;38002;53.296;6.600;2023-04-04T02:57:20;103402.31;;;0.42;77.11
51986;BME280;38002;53.296;6.600;2023-04-04T03:02:23;103397.88;;;0.40;77.17
51986;BME280;38002;53.296;6.600;2023-04-04T03:07:23;103390.75;;;0.39;77.46
51986;BME280;38002;53.296;6.600;2023-04-04T03:12:23;103390.84;;;0.36;77.48
51986;BME280;38002;53.296;6.600;2023-04-04T03:17:24;103379.34;;;0.32;77.88
51986;BME280;38002;53.296;6.600;2023-04-04T03:22:25;103379.44;;;0.28;78.06
51986;BME280;38002;53.296;6.600;2023-04-04T03:27:26;103383.19;;;0.19;77.50
51986;BME280;38002;53.296;6.600;2023-04-04T03:32:26;103392.19;;;0.17;77.47
51986;BME280;38002;53.296;6.600;2023-04-04T03:37:30;103385.06;;;0.16;77.95
51986;BME280;38002;53.296;6.600;2023-04-04T03:42:34;103382.38;;;0.16;77.63
51986;BME280;38002;53.296;6.600;2023-04-04T03:47:34;103387.81;;;0.13;77.34
51986;BME280;38002;53.296;6.600;2023-04-04T03:52:38;103382.50;;;0.10;77.47
51986;BME280;38002;53.296;6.600;2023-04-04T03:57:44;103379.84;;;0.10;77.87
51986;BME280;38002;53.296;6.600;2023-04-04T04:02:45;103380.78;;;0.09;78.02
51986;BME280;38002;53.296;6.600;2023-04-04T04:07:45;103379.94;;;0.05;77.91
51986;BME280;38002;53.296;6.600;2023-04-04T04:12:46;103379.13;;;0.02;78.38
51986;BME280;38002;53.296;6.600;2023-04-04T04:17:46;103372.09;;;-0.03;78.08
51986;BME280;38002;53.296;6.600;2023-04-04T04:22:47;103353.47;;;-0.09;78.68
51986;BME280;38002;53.296;6.600;2023-04-04T04:27:48;103356.22;;;-0.12;78.84
51986;BME280;38002;53.296;6.600;2023-04-04T04:32:49;103358.97;;;-0.13;78.51
51986;BME280;38002;53.296;6.600;2023-04-04T04:37:49;103367.91;;;-0.16;78.56
51986;BME280;38002;53.296;6.600;2023-04-04T04:42:50;103370.50;;;-0.13;78.43
51986;BME280;38002;53.296;6.600;2023-04-04T04:47:50;103383.88;;;-0.13;78.32
51986;BME280;38002;53.296;6.600;2023-04-04T04:52:51;103381.25;;;-0.14;78.67
51986;BME280;38002;53.296;6.600;2023-04-04T04:57:51;103396.44;;;-0.16;78.96
51986;BME280;38002;53.296;6.600;2023-04-04T05:02:54;103387.59;;;-0.20;78.70
51986;BME280;38002;53.296;6.600;2023-04-04T05:07:55;103398.38;;;-0.23;78.89
51986;BME280;38002;53.296;6.600;2023-04-04T05:12:56;103396.56;;;-0.22;78.58
51986;BME280;38002;53.296;6.600;2023-04-04T05:17:57;103403.72;;;-0.23;78.67
51986;BME280;38002;53.296;6.600;2023-04-04T05:22:57;103390.44;;;-0.29;79.37
51986;BME280;38002;53.296;6.600;2023-04-04T05:27:57;103417.88;;;-0.19;79.04
51986;BME280;38002;53.296;6.600;2023-04-04T05:32:58;103408.91;;;-0.17;79.25
51986;BME280;38002;53.296;6.600;2023-04-04T05:37:58;103398.19;;;-0.15;79.15
51986;BME280;38002;53.296;6.600;2023-04-04T05:42:59;103399.00;;;-0.12;79.41
51986;BME280;38002;53.296;6.600;2023-04-04T05:48:03;103397.19;;;-0.10;79.20
51986;BME280;38002;53.296;6.600;2023-04-04T05:53:04;103395.34;;;-0.06;79.34
51986;BME280;38002;53.296;6.600;2023-04-04T05:58:04;103398.75;;;0.00;79.52
51986;BME280;38002;53.296;6.600;2023-04-04T06:03:04;103396.88;;;0.06;79.76
51986;BME280;38002;53.296;6.600;2023-04-04T06:08:05;103394.25;;;0.03;79.85
51986;BME280;38002;53.296;6.600;2023-04-04T06:13:06;103416.38;;;0.11;80.54
51986;BME280;38002;53.296;6.600;2023-04-04T06:18:06;103397.63;;;0.12;81.12
51986;BME280;38002;53.296;6.600;2023-04-04T06:23:07;103403.78;;;0.16;81.13
51986;BME280;38002;53.296;6.600;2023-04-04T06:28:09;103414.25;;;0.26;83.13
51986;BME280;38002;53.296;6.600;2023-04-04T06:33:10;103406.06;;;0.34;80.90
51986;BME280;38002;53.296;6.600;2023-04-04T06:38:11;103413.81;;;0.46;80.23
51986;BME280;38002;53.296;6.600;2023-04-04T06:43:12;103405.56;;;0.55;80.12
51986;BME280;38002;53.296;6.600;2023-04-04T06:48:13;103411.47;;;0.69;79.85
51986;BME280;38002;53.296;6.600;2023-04-04T06:53:13;103406.72;;;0.82;78.97
51986;BME280;38002;53.296;6.600;2023-04-04T06:58:16;103395.72;;;0.93;78.57
51986;BME280;38002;53.296;6.600;2023-04-04T07:03:17;103398.72;;;1.16;77.89
51986;BME280;38002;53.296;6.600;2023-04-04T07:08:17;103388.34;;;1.36;77.33
51986;BME280;38002;53.296;6.600;2023-04-04T07:13:18;103385.16;;;1.54;77.41
51986;BME280;38002;53.296;6.600;2023-04-04T07:18:18;103386.09;;;1.84;77.20
51986;BME280;38002;53.296;6.600;2023-04-04T07:23:19;103387.13;;;2.09;76.94
51986;BME280;38002;53.296;6.600;2023-04-04T07:28:19;103372.91;;;2.35;75.71
51986;BME280;38002;53.296;6.600;2023-04-04T07:33:20;103372.81;;;2.66;74.95
51986;BME280;38002;53.296;6.600;2023-04-04T07:38:21;103371.84;;;2.95;74.11
51986;BME280;38002;53.296;6.600;2023-04-04T07:43:22;103366.25;;;3.27;73.39
51986;BME280;38002;53.296;6.600;2023-04-04T07:48:22;103369.50;;;3.61;73.15
51986;BME280;38002;53.296;6.600;2023-04-04T07:53:23;103363.56;;;4.00;71.98
51986;BME280;38002;53.296;6.600;2023-04-04T07:58:23;103353.41;;;4.30;71.33
51986;BME280;38002;53.296;6.600;2023-04-04T08:03:24;103356.25;;;4.70;70.95
51986;BME280;38002;53.296;6.600;2023-04-04T08:08:24;103347.66;;;5.02;69.60
51986;BME280;38002;53.296;6.600;2023-04-04T08:13:25;103355.84;;;5.41;69.31
51986;BME280;38002;53.296;6.600;2023-04-04T08:18:26;103344.75;;;5.68;69.32
51986;BME280;38002;53.296;6.600;2023-04-04T08:23:26;103340.69;;;5.98;68.55
51986;BME280;38002;53.296;6.600;2023-04-04T08:28:28;103341.50;;;6.37;67.70
51986;BME280;38002;53.296;6.600;2023-04-04T08:33:29;103350.47;;;6.74;66.75
51986;BME280;38002;53.296;6.600;2023-04-04T08:38:30;103339.41;;;7.14;66.11
51986;BME280;38002;53.296;6.600;2023-04-04T08:43:33;103341.69;;;7.39;63.35
51986;BME280;38002;53.296;6.600;2023-04-04T08:48:35;103330.78;;;7.58;64.73
51986;BME280;38002;53.296;6.600;2023-04-04T08:53:37;103332.00;;;7.68;61.84
51986;BME280;38002;53.296;6.600;2023-04-04T08:58:38;103339.94;;;7.88;63.30
51986;BME280;38002;53.296;6.600;2023-04-04T09:03:39;103344.94;;;8.11;61.64
51986;BME280;38002;53.296;6.600;2023-04-04T09:08:40;103326.53;;;8.34;62.64
51986;BME280;38002;53.296;6.600;2023-04-04T09:13:43;103331.28;;;8.61;61.70
51986;BME280;38002;53.296;6.600;2023-04-04T09:18:44;103328.44;;;8.63;50.06
51986;BME280;38002;53.296;6.600;2023-04-04T09:23:44;103318.81;;;8.73;60.84
51986;BME280;38002;53.296;6.600;2023-04-04T09:28:51;103317.66;;;9.23;60.75
51986;BME280;38002;53.296;6.600;2023-04-04T09:33:52;103312.44;;;9.62;61.49
51986;BME280;38002;53.296;6.600;2023-04-04T09:38:52;103305.06;;;9.92;60.45
51986;BME280;38002;53.296;6.600;2023-04-04T09:43:56;103306.16;;;10.18;58.05
51986;BME280;38002;53.296;6.600;2023-04-04T09:48:59;103305.75;;;10.10;60.27
51986;BME280;38002;53.296;6.600;2023-04-04T09:53:59;103306.00;;;10.48;61.21
51986;BME280;38002;53.296;6.600;2023-04-04T09:59:00;103306.94;;;10.61;59.59
51986;BME280;38002;53.296;6.600;2023-04-04T10:04:03;103312.59;;;10.71;59.68
51986;BME280;38002;53.296;6.600;2023-04-04T10:09:06;103305.63;;;10.67;60.00
51986;BME280;38002;53.296;6.600;2023-04-04T10:14:10;103297.44;;;10.93;59.11
51986;BME280;38002;53.296;6.600;2023-04-04T10:19:11;103299.75;;;11.00;58.61
51986;BME280;38002;53.296;6.600;2023-04-04T10:24:14;103290.72;;;10.99;58.16
51986;BME280;38002;53.296;6.600;2023-04-04T10:29:17;103291.31;;;11.29;57.76
51986;BME280;38002;53.296;6.600;2023-04-04T10:34:27;103284.22;;;11.52;55.25
51986;BME280;38002;53.296;6.600;2023-04-04T10:39:50;103277.94;;;11.52;52.89
51986;BME280;38002;53.296;6.600;2023-04-04T10:44:51;103273.31;;;11.52;57.57
51986;BME280;38002;53.296;6.600;2023-04-04T10:49:53;103264.94;;;11.68;55.66
51986;BME280;38002;53.296;6.600;2023-04-04T10:54:56;103262.22;;;11.80;56.97
51986;BME280;38002;53.296;6.600;2023-04-04T11:00:06;103257.69;;;12.05;55.57
51986;BME280;38002;53.296;6.600;2023-04-04T11:05:37;103253.94;;;11.95;47.51
51986;BME280;38002;53.296;6.600;2023-04-04T11:10:50;103245.84;;;11.93;54.52
51986;BME280;38002;53.296;6.600;2023-04-04T11:21:09;103243.09;;;12.06;53.62
51986;BME280;38002;53.296;6.600;2023-04-04T11:26:09;103241.66;;;12.00;53.88
51986;BME280;38002;53.296;6.600;2023-04-04T11:46:55;103214.44;;;12.83;52.39
51986;BME280;38002;53.296;6.600;2023-04-04T11:51:57;103214.84;;;12.89;53.68
51986;BME280;38002;53.296;6.600;2023-04-04T11:56:57;103217.13;;;13.06;52.38
51986;BME280;38002;53.296;6.600;2023-04-04T12:01:58;103205.94;;;13.09;52.21
51986;BME280;38002;53.296;6.600;2023-04-04T12:07:00;103206.50;;;13.26;50.77
51986;BME280;38002;53.296;6.600;2023-04-04T12:12:01;103198.56;;;13.11;50.89
51986;BME280;38002;53.296;6.600;2023-04-04T12:17:02;103181.66;;;13.17;51.82
51986;BME280;38002;53.296;6.600;2023-04-04T12:22:03;103188.00;;;13.29;50.86
51986;BME280;38002;53.296;6.600;2023-04-04T12:27:05;103190.22;;;13.13;51.16
51986;BME280;38002;53.296;6.600;2023-04-04T12:32:06;103180.59;;;12.96;50.92
51986;BME280;38002;53.296;6.600;2023-04-04T12:37:09;103178.06;;;12.71;50.55
51986;BME280;38002;53.296;6.600;2023-04-04T12:42:10;103172.50;;;12.49;50.33
51986;BME280;38002;53.296;6.600;2023-04-04T12:47:13;103170.22;;;12.66;51.12
51986;BME280;38002;53.296;6.600;2023-04-04T12:52:28;103166.59;;;12.55;50.13
51986;BME280;38002;53.296;6.600;2023-04-04T12:57:32;103150.84;;;12.35;50.55
51986;BME280;38002;53.296;6.600;2023-04-04T13:02:35;103154.53;;;12.46;50.76
51986;BME280;38002;53.296;6.600;2023-04-04T13:07:37;103146.53;;;12.67;50.93
51986;BME280;38002;53.296;6.600;2023-04-04T13:18:12;103129.19;;;12.90;46.10
51986;BME280;38002;53.296;6.600;2023-04-04T13:23:14;103119.66;;;13.07;49.45
51986;BME280;38002;53.296;6.600;2023-04-04T13:28:15;103115.09;;;13.41;49.19
51986;BME280;38002;53.296;6.600;2023-04-04T13:33:19;103105.66;;;13.45;48.09
51986;BME280;38002;53.296;6.600;2023-04-04T13:38:21;103106.91;;;13.41;48.86
51986;BME280;38002;53.296;6.600;2023-04-04T13:43:21;103091.34;;;13.52;48.50
51986;BME280;38002;53.296;6.600;2023-04-04T13:48:22;103082.34;;;13.73;48.34
51986;BME280;38002;53.296;6.600;2023-04-04T13:53:22;103070.69;;;13.59;47.94
51986;BME280;38002;53.296;6.600;2023-04-04T13:58:23;103060.34;;;13.74;47.97
51986;BME280;38002;53.296;6.600;2023-04-04T14:03:23;103060.63;;;13.71;47.93
51986;BME280;38002;53.296;6.600;2023-04-04T14:08:24;103056.63;;;13.64;48.41
51986;BME280;38002;53.296;6.600;2023-04-04T14:13:24;103046.72;;;13.52;47.83
51986;BME280;38002;53.296;6.600;2023-04-04T14:18:25;103058.59;;;13.19;46.47
51986;BME280;38002;53.296;6.600;2023-04-04T14:23:26;103062.53;;;12.93;47.73
51986;BME280;38002;53.296;6.600;2023-04-04T14:28:29;103044.66;;;12.78;48.77
51986;BME280;38002;53.296;6.600;2023-04-04T14:33:29;103049.22;;;12.66;48.99
51986;BME280;38002;53.296;6.600;2023-04-04T14:38:30;103044.91;;;12.63;49.11
51986;BME280;38002;53.296;6.600;2023-04-04T14:43:31;103048.09;;;12.57;48.75
51986;BME280;38002;53.296;6.600;2023-04-04T14:48:31;103042.09;;;12.30;48.70
51986;BME280;38002;53.296;6.600;2023-04-04T14:53:32;103038.94;;;12.12;48.85
51986;BME280;38002;53.296;6.600;2023-04-04T14:58:33;103042.03;;;12.08;49.34
51986;BME280;38002;53.296;6.600;2023-04-04T15:03:33;103031.84;;;11.99;49.27
51986;BME280;38002;53.296;6.600;2023-04-04T15:08:37;103043.66;;;11.87;48.83
51986;BME280;38002;53.296;6.600;2023-04-04T15:13:37;103036.75;;;11.70;49.29
51986;BME280;38002;53.296;6.600;2023-04-04T15:18:38;103034.06;;;11.57;49.67
51986;BME280;38002;53.296;6.600;2023-04-04T15:23:38;103029.22;;;11.50;49.56
51986;BME280;38002;53.296;6.600;2023-04-04T15:28:39;103025.47;;;11.27;49.58
51986;BME280;38002;53.296;6.600;2023-04-04T15:33:40;103027.91;;;11.19;49.75
51986;BME280;38002;53.296;6.600;2023-04-04T15:38:40;103030.56;;;11.08;49.85
51986;BME280;38002;53.296;6.600;2023-04-04T15:43:41;103028.50;;;10.99;50.12
51986;BME280;38002;53.296;6.600;2023-04-04T15:48:41;103034.06;;;10.84;50.56
51986;BME280;38002;53.296;6.600;2023-04-04T15:53:42;103037.44;;;10.63;51.40
51986;BME280;38002;53.296;6.600;2023-04-04T15:58:42;103027.00;;;10.31;50.49
51986;BME280;38002;53.296;6.600;2023-04-04T16:03:43;103023.25;;;10.07;51.29
51986;BME280;38002;53.296;6.600;2023-04-04T16:08:43;103014.84;;;9.97;51.79
51986;BME280;38002;53.296;6.600;2023-04-04T16:13:44;103012.66;;;9.90;51.55
51986;BME280;38002;53.296;6.600;2023-04-04T16:18:44;102999.03;;;9.77;51.43
51986;BME280;38002;53.296;6.600;2023-04-04T16:23:45;103000.22;;;9.73;51.71
51986;BME280;38002;53.296;6.600;2023-04-04T16:28:45;103001.94;;;9.62;51.44
51986;BME280;38002;53.296;6.600;2023-04-04T16:33:46;103012.06;;;9.45;52.39
51986;BME280;38002;53.296;6.600;2023-04-04T16:38:47;103002.25;;;9.30;52.67
51986;BME280;38002;53.296;6.600;2023-04-04T16:43:47;103005.84;;;9.17;52.52
51986;BME280;38002;53.296;6.600;2023-04-04T16:48:51;103006.09;;;8.99;53.38
51986;BME280;38002;53.296;6.600;2023-04-04T16:53:52;103008.56;;;8.76;54.45
51986;BME280;38002;53.296;6.600;2023-04-04T16:58:52;103004.56;;;8.53;55.29
51986;BME280;38002;53.296;6.600;2023-04-04T17:03:53;103002.81;;;8.38;56.47
51986;BME280;38002;53.296;6.600;2023-04-04T17:08:53;102994.06;;;8.18;55.65
51986;BME280;38002;53.296;6.600;2023-04-04T17:13:54;102993.06;;;8.05;56.45
51986;BME280;38002;53.296;6.600;2023-04-04T17:18:55;102982.69;;;7.98;56.66
51986;BME280;38002;53.296;6.600;2023-04-04T17:23:55;102985.28;;;7.85;56.65
51986;BME280;38002;53.296;6.600;2023-04-04T17:28:56;102988.91;;;7.70;56.75
51986;BME280;38002;53.296;6.600;2023-04-04T17:33:56;102986.31;;;7.53;57.65
51986;BME280;38002;53.296;6.600;2023-04-04T17:38:57;102980.75;;;7.40;57.53
51986;BME280;38002;53.296;6.600;2023-04-04T17:43:57;102984.25;;;7.26;58.16
51986;BME280;38002;53.296;6.600;2023-04-04T17:48:58;102976.66;;;7.17;58.64
51986;BME280;38002;53.296;6.600;2023-04-04T17:53:59;102976.25;;;7.09;58.40
51986;BME280;38002;53.296;6.600;2023-04-04T17:59:00;102977.91;;;6.96;58.75
51986;BME280;38002;53.296;6.600;2023-04-04T18:04:00;102978.78;;;6.81;58.75
51986;BME280;38002;53.296;6.600;2023-04-04T18:09:01;102986.44;;;6.73;59.31
51986;BME280;38002;53.296;6.600;2023-04-04T18:14:03;102991.50;;;6.63;60.19
51986;BME280;38002;53.296;6.600;2023-04-04T18:19:03;102986.50;;;6.56;60.18
51986;BME280;38002;53.296;6.600;2023-04-04T18:24:04;102984.06;;;6.51;60.65
51986;BME280;38002;53.296;6.600;2023-04-04T18:29:06;102992.50;;;6.45;60.48
51986;BME280;38002;53.296;6.600;2023-04-04T18:34:07;102996.88;;;6.30;61.08
51986;BME280;38002;53.296;6.600;2023-04-04T18:39:07;102985.63;;;6.22;60.98
51986;BME280;38002;53.296;6.600;2023-04-04T18:44:08;102995.66;;;6.20;61.30
51986;BME280;38002;53.296;6.600;2023-04-04T18:49:08;102995.00;;;6.15;61.60
51986;BME280;38002;53.296;6.600;2023-04-04T18:54:09;102996.13;;;6.11;61.83
51986;BME280;38002;53.296;6.600;2023-04-04T18:59:09;103003.44;;;6.09;62.36
51986;BME280;38002;53.296;6.600;2023-04-04T19:04:10;103007.41;;;6.02;62.12
51986;BME280;38002;53.296;6.600;2023-04-04T19:09:11;103004.25;;;5.94;62.06
51986;BME280;38002;53.296;6.600;2023-04-04T19:14:12;103004.69;;;5.85;62.41
51986;BME280;38002;53.296;6.600;2023-04-04T19:19:12;103005.31;;;5.73;62.52
51986;BME280;38002;53.296;6.600;2023-04-04T19:24:13;103002.44;;;5.59;62.54
51986;BME280;38002;53.296;6.600;2023-04-04T19:29:18;103002.13;;;5.47;63.52
51986;BME280;38002;53.296;6.600;2023-04-04T19:34:19;103007.31;;;5.33;63.41
51986;BME280;38002;53.296;6.600;2023-04-04T19:39:22;102996.25;;;5.21;63.21
51986;BME280;38002;53.296;6.600;2023-04-04T19:44:24;102988.84;;;5.07;63.46
51986;BME280;38002;53.296;6.600;2023-04-04T19:49:26;102993.09;;;4.94;64.28
51986;BME280;38002;53.296;6.600;2023-04-04T19:54:34;102993.59;;;4.83;64.29
51986;BME280;38002;53.296;6.600;2023-04-04T19:59:56;102998.63;;;4.72;64.93
51986;BME280;38002;53.296;6.600;2023-04-04T20:04:58;102992.78;;;4.63;65.34
51986;BME280;38002;53.296;6.600;2023-04-04T20:09:58;102995.06;;;4.53;65.31
51986;BME280;38002;53.296;6.600;2023-04-04T20:14:59;102991.91;;;4.43;65.31
51986;BME280;38002;53.296;6.600;2023-04-04T20:20:00;102988.06;;;4.29;65.82
51986;BME280;38002;53.296;6.600;2023-04-04T20:25:01;102989.44;;;4.19;65.74
51986;BME280;38002;53.296;6.600;2023-04-04T20:30:10;102987.09;;;4.11;65.69
51986;BME280;38002;53.296;6.600;2023-04-04T20:35:24;102976.59;;;4.05;66.91
51986;BME280;38002;53.296;6.600;2023-04-04T20:40:37;102984.94;;;3.99;66.95
51986;BME280;38002;53.296;6.600;2023-04-04T20:45:42;102977.22;;;3.91;66.08
51986;BME280;38002;53.296;6.600;2023-04-04T20:50:45;102977.41;;;3.87;66.23
51986;BME280;38002;53.296;6.600;2023-04-04T20:55:46;102975.91;;;3.80;66.18
51986;BME280;38002;53.296;6.600;2023-04-04T21:00:47;102972.63;;;3.73;66.83
51986;BME280;38002;53.296;6.600;2023-04-04T21:05:48;102965.84;;;3.64;66.98
51986;BME280;38002;53.296;6.600;2023-04-04T21:10:53;102968.91;;;3.55;66.90
51986;BME280;38002;53.296;6.600;2023-04-04T21:15:58;102973.88;;;3.44;66.63
51986;BME280;38002;53.296;6.600;2023-04-04T21:21:16;102972.47;;;3.36;67.31
51986;BME280;38002;53.296;6.600;2023-04-04T21:31:33;102969.84;;;3.12;67.69
51986;BME280;38002;53.296;6.600;2023-04-04T21:36:34;102955.09;;;3.01;67.52
51986;BME280;38002;53.296;6.600;2023-04-04T21:41:35;102950.09;;;2.92;68.42
51986;BME280;38002;53.296;6.600;2023-04-04T21:46:37;102954.06;;;2.82;68.19
51986;BME280;38002;53.296;6.600;2023-04-04T21:51:38;102968.69;;;2.74;68.72
51986;BME280;38002;53.296;6.600;2023-04-04T21:56:40;102966.31;;;2.67;68.75
51986;BME280;38002;53.296;6.600;2023-04-04T22:01:40;102960.47;;;2.56;68.87
51986;BME280;38002;53.296;6.600;2023-04-04T22:06:41;102959.00;;;2.47;68.96
51986;BME280;38002;53.296;6.600;2023-04-04T22:11:41;102954.81;;;2.40;69.19
51986;BME280;38002;53.296;6.600;2023-04-04T22:16:43;102955.16;;;2.31;69.21
51986;BME280;38002;53.296;6.600;2023-04-04T22:21:44;102954.47;;;2.26;69.47
51986;BME280;38002;53.296;6.600;2023-04-04T22:26:45;102952.03;;;2.20;69.46
51986;BME280;38002;53.296;6.600;2023-04-04T22:31:46;102952.28;;;2.12;69.62
51986;BME280;38002;53.296;6.600;2023-04-04T22:36:47;102953.47;;;2.05;69.98
51986;BME280;38002;53.296;6.600;2023-04-04T22:41:47;102944.75;;;1.99;70.33
51986;BME280;38002;53.296;6.600;2023-04-04T22:46:47;102929.09;;;1.87;70.41
51986;BME280;38002;53.296;6.600;2023-04-04T22:51:48;102946.94;;;1.88;70.34
51986;BME280;38002;53.296;6.600;2023-04-04T22:56:48;102939.13;;;1.81;70.44
51986;BME280;38002;53.296;6.600;2023-04-04T23:01:49;102938.44;;;1.76;70.63
51986;BME280;38002;53.296;6.600;2023-04-04T23:06:49;102932.34;;;1.71;70.32
51986;BME280;38002;53.296;6.600;2023-04-04T23:11:49;102931.75;;;1.63;70.19
51986;BME280;38002;53.296;6.600;2023-04-04T23:16:50;102929.38;;;1.54;70.82
51986;BME280;38002;53.296;6.600;2023-04-04T23:21:51;102922.44;;;1.49;71.38
51986;BME280;38002;53.296;6.600;2023-04-04T23:26:52;102926.25;;;1.42;71.18
51986;BME280;38002;53.296;6.600;2023-04-04T23:31:52;102914.06;;;1.33;71.52
51986;BME280;38002;53.296;6.600;2023-04-04T23:36:53;102915.09;;;1.29;71.26
51986;BME280;38002;53.296;6.600;2023-04-04T23:41:53;102917.09;;;1.22;72.35
51986;BME280;38002;53.296;6.600;2023-04-04T23:46:54;102903.81;;;1.19;72.35
51986;BME280;38002;53.296;6.600;2023-04-04T23:51:54;102907.50;;;1.15;72.13
51986;BME280;38002;53.296;6.600;2023-04-04T23:56:55;102912.09;;;1.12;72.07
